createdAt,value
2017-11-20T00:01:54.446Z,4.75
2017-11-20T00:04:21.906Z,5.43
2017-11-20T00:06:48.346Z,5.60
2017-11-20T00:09:14.765Z,4.90
2017-11-20T00:11:41.937Z,5.25
2017-11-20T00:14:08.343Z,4.70
2017-11-20T00:16:35.462Z,4.80
2017-11-20T00:19:01.846Z,4.80
2017-11-20T00:21:28.336Z,5.20
2017-11-20T00:23:54.785Z,5.78
2017-11-20T00:26:21.211Z,5.05
2017-11-20T00:28:48.713Z,5.97
2017-11-20T00:31:15.210Z,5.30
2017-11-20T00:33:42.397Z,5.55
2017-11-20T00:36:09.570Z,6.72
2017-11-20T00:38:35.965Z,5.25
2017-11-20T00:41:02.416Z,5.20
2017-11-20T00:43:29.566Z,6.90
2017-11-20T00:45:55.971Z,4.85
2017-11-20T00:48:22.459Z,4.85
2017-11-20T00:50:48.830Z,4.75
2017-11-20T00:53:16.306Z,4.55
2017-11-20T00:55:43.442Z,6.00
2017-11-20T00:58:09.826Z,5.45
2017-11-20T01:00:36.259Z,5.55
2017-11-20T01:03:03.365Z,4.97
2017-11-20T01:05:29.759Z,5.32
2017-11-20T01:07:56.155Z,5.70
2017-11-20T01:10:22.571Z,7.65
2017-11-20T01:12:52.389Z,5.60
2017-11-20T01:15:19.034Z,5.47
2017-11-20T01:17:45.442Z,5.35
2017-11-20T01:20:12.191Z,5.87
2017-11-20T01:22:39.378Z,4.93
2017-11-20T01:25:06.517Z,6.05
2017-11-20T01:27:32.954Z,6.32
2017-11-20T01:30:00.149Z,6.57
2017-11-20T01:32:27.317Z,12.55
2017-11-20T01:34:53.802Z,5.45
2017-11-20T01:37:20.253Z,6.07
2017-11-20T01:39:46.709Z,6.20
2017-11-20T01:42:13.130Z,6.25
2017-11-20T01:44:39.700Z,6.80
2017-11-20T01:47:06.857Z,6.37
2017-11-20T01:49:33.290Z,6.28
2017-11-20T01:51:59.710Z,7.22
2017-11-20T01:54:26.134Z,6.20
2017-11-20T01:56:53.292Z,6.85
2017-11-20T01:59:19.781Z,6.20
2017-11-20T02:01:46.262Z,6.22
2017-11-20T02:04:12.702Z,6.28
2017-11-20T02:06:39.109Z,5.80
2017-11-20T02:09:05.453Z,7.30
2017-11-20T02:11:31.853Z,7.10
2017-11-20T02:13:58.265Z,5.50
2017-11-20T02:16:24.661Z,6.28
2017-11-20T02:18:51.845Z,5.68
2017-11-20T02:21:18.264Z,6.50
2017-11-20T02:23:44.701Z,6.18
2017-11-20T02:26:11.161Z,5.55
2017-11-20T02:28:37.624Z,5.53
2017-11-20T02:31:04.039Z,5.32
2017-11-20T02:33:30.483Z,5.93
2017-11-20T02:35:56.897Z,5.22
2017-11-20T02:38:23.362Z,5.80
2017-11-20T02:40:49.786Z,6.03
2017-11-20T02:43:17.031Z,7.15
2017-11-20T02:45:43.473Z,6.45
2017-11-20T02:48:09.891Z,6.50
2017-11-20T02:50:36.370Z,6.10
2017-11-20T02:53:02.766Z,5.68
2017-11-20T02:55:29.184Z,6.45
2017-11-20T02:57:55.661Z,5.62
2017-11-20T03:00:22.857Z,4.90
2017-11-20T03:02:49.255Z,4.50
2017-11-20T03:05:15.662Z,4.45
2017-11-20T03:07:42.066Z,4.18
2017-11-20T03:10:08.514Z,4.22
2017-11-20T03:12:34.935Z,4.55
2017-11-20T03:15:02.117Z,3.75
2017-11-20T03:17:28.481Z,5.00
2017-11-20T03:19:55.726Z,4.30
2017-11-20T03:22:22.125Z,5.25
2017-11-20T03:24:48.533Z,3.40
2017-11-20T03:27:14.973Z,4.30
2017-11-20T03:29:41.385Z,4.45
2017-11-20T03:32:07.829Z,3.78
2017-11-20T03:34:34.282Z,2.90
2017-11-20T03:37:00.722Z,4.22
2017-11-20T03:39:27.870Z,3.33
2017-11-20T03:41:55.070Z,4.28
2017-11-20T03:44:21.503Z,2.78
2017-11-20T03:46:47.924Z,4.75
2017-11-20T03:49:14.361Z,3.58
2017-11-20T03:51:41.545Z,3.92
2017-11-20T03:54:08.966Z,4.18
2017-11-20T03:56:35.419Z,4.07
2017-11-20T03:59:01.816Z,3.33
2017-11-20T04:01:28.202Z,4.10
2017-11-20T04:03:54.569Z,3.40
2017-11-20T04:06:21.022Z,4.12
2017-11-20T04:08:48.136Z,3.65
2017-11-20T04:11:14.552Z,4.12
2017-11-20T04:13:40.971Z,4.07
2017-11-20T04:16:08.057Z,3.30
2017-11-20T04:18:34.453Z,3.80
2017-11-20T04:21:00.871Z,4.18
2017-11-20T04:23:27.290Z,3.70
2017-11-20T04:25:53.744Z,3.83
2017-11-20T04:28:20.135Z,3.75
2017-11-20T04:30:46.529Z,4.00
2017-11-20T04:33:14.049Z,4.50
2017-11-20T04:35:40.529Z,5.32
2017-11-20T04:38:07.029Z,4.57
2017-11-20T04:40:34.226Z,4.00
2017-11-20T04:43:01.406Z,4.90
2017-11-20T04:45:27.802Z,4.25
2017-11-20T04:47:55.022Z,4.95
2017-11-20T04:50:21.403Z,5.40
2017-11-20T04:52:47.818Z,4.70
2017-11-20T04:55:14.257Z,5.35
2017-11-20T04:57:40.675Z,5.15
2017-11-20T05:00:07.845Z,4.75
2017-11-20T05:02:34.286Z,5.10
2017-11-20T05:05:00.663Z,5.10
2017-11-20T05:07:27.063Z,4.43
2017-11-20T05:09:53.504Z,4.72
2017-11-20T05:12:19.960Z,4.90
2017-11-20T05:14:47.084Z,4.93
2017-11-20T05:17:14.257Z,4.30
2017-11-20T05:19:40.645Z,5.53
2017-11-20T05:22:07.058Z,5.00
2017-11-20T05:24:33.481Z,5.32
2017-11-20T05:26:59.874Z,4.28
2017-11-20T05:29:26.269Z,4.05
2017-11-20T05:31:53.443Z,4.57
2017-11-20T05:34:19.848Z,5.80
2017-11-20T05:36:46.321Z,4.32
2017-11-20T05:39:13.533Z,4.20
2017-11-20T05:41:39.917Z,4.78
2017-11-20T05:44:06.374Z,4.50
2017-11-20T05:46:32.797Z,4.43
2017-11-20T05:48:59.193Z,4.47
2017-11-20T05:51:26.362Z,4.05
2017-11-20T05:53:52.758Z,5.75
2017-11-20T05:56:19.165Z,5.20
2017-11-20T05:58:45.543Z,5.15
2017-11-20T06:01:12.719Z,4.85
2017-11-20T06:03:40.121Z,4.93
2017-11-20T06:06:07.282Z,4.15
2017-11-20T06:08:33.709Z,5.00
2017-11-20T06:11:00.841Z,4.70
2017-11-20T06:13:27.250Z,3.55
2017-11-20T06:15:53.661Z,5.25
2017-11-20T06:18:20.817Z,3.25
2017-11-20T06:20:47.213Z,5.50
2017-11-20T06:23:13.621Z,3.62
2017-11-20T06:25:40.729Z,4.18
2017-11-20T06:28:07.113Z,4.12
2017-11-20T06:30:34.263Z,4.37
2017-11-20T06:33:00.645Z,4.70
2017-11-20T06:35:27.053Z,4.57
2017-11-20T06:37:54.214Z,3.92
2017-11-20T06:40:20.582Z,4.65
2017-11-20T06:42:47.741Z,5.10
2017-11-20T06:45:14.133Z,4.10
2017-11-20T06:47:40.530Z,3.75
2017-11-20T06:50:07.714Z,4.00
2017-11-20T06:52:34.106Z,4.12
2017-11-20T06:55:00.519Z,4.60
2017-11-20T06:57:26.905Z,4.65
2017-11-20T06:59:54.095Z,4.30
2017-11-20T07:02:20.445Z,4.70
2017-11-20T07:04:46.841Z,4.30
2017-11-20T07:07:14.002Z,3.95
2017-11-20T07:09:40.398Z,3.65
2017-11-20T07:12:06.781Z,4.20
2017-11-20T07:14:33.974Z,5.35
2017-11-20T07:17:02.289Z,5.85
2017-11-20T07:19:29.324Z,5.55
2017-11-20T07:21:55.640Z,5.40
2017-11-20T07:24:21.908Z,4.60
2017-11-20T07:26:59.276Z,4.80
2017-11-20T07:29:40.950Z,5.22
2017-11-20T07:32:07.256Z,5.50
2017-11-20T07:34:46.557Z,4.50
2017-11-20T07:37:25.016Z,6.05
2017-11-20T07:40:03.565Z,5.55
2017-11-20T07:42:29.860Z,5.75
2017-11-20T07:44:56.160Z,6.05
2017-11-20T07:47:23.168Z,6.50
2017-11-20T07:49:49.464Z,7.00
2017-11-20T07:52:15.752Z,5.87
2017-11-20T07:54:42.081Z,6.22
2017-11-20T07:57:08.393Z,6.03
2017-11-20T07:59:34.692Z,6.10
2017-11-20T08:02:00.988Z,6.32
2017-11-20T08:04:27.269Z,7.15
2017-11-20T08:06:53.588Z,5.82
2017-11-20T08:09:19.869Z,6.57
2017-11-20T08:11:46.161Z,6.65
2017-11-20T08:14:12.489Z,6.18
2017-11-20T08:16:39.508Z,7.60
2017-11-20T08:19:05.829Z,6.80
2017-11-20T08:21:32.143Z,8.35
2017-11-20T08:23:58.465Z,8.90
2017-11-20T08:26:25.488Z,8.48
2017-11-20T08:28:51.769Z,8.13
2017-11-20T08:31:18.808Z,9.40
2017-11-20T08:33:45.117Z,8.07
2017-11-20T08:36:11.468Z,7.30
2017-11-20T08:38:37.761Z,8.32
2017-11-20T08:41:04.036Z,9.25
2017-11-20T08:43:30.364Z,8.90
2017-11-20T08:45:56.717Z,9.15
2017-11-20T08:48:23.036Z,9.75
2017-11-20T08:50:49.396Z,8.38
2017-11-20T08:53:15.691Z,9.63
2017-11-20T08:55:42.000Z,10.40
2017-11-20T08:58:08.308Z,9.50
2017-11-20T09:00:34.657Z,10.38
2017-11-20T09:03:00.941Z,8.68
2017-11-20T09:05:28.030Z,8.63
2017-11-20T09:07:55.098Z,7.97
2017-11-20T09:10:21.392Z,9.55
2017-11-20T09:12:47.745Z,9.32
2017-11-20T09:15:14.065Z,7.87
2017-11-20T09:17:40.400Z,8.95
2017-11-20T09:20:06.745Z,10.48
2017-11-20T09:22:33.084Z,9.75
2017-11-20T09:24:59.405Z,10.85
2017-11-20T09:27:25.797Z,10.40
2017-11-20T09:29:52.124Z,10.20
2017-11-20T09:32:19.177Z,11.80
2017-11-20T09:34:45.536Z,10.68
2017-11-20T09:37:17.409Z,11.20
2017-11-20T09:39:43.735Z,11.02
2017-11-20T09:42:10.081Z,11.07
2017-11-20T09:44:36.372Z,10.20
2017-11-20T09:47:03.446Z,9.93
2017-11-20T09:49:29.812Z,8.55
2017-11-20T09:51:56.101Z,10.02
2017-11-20T09:54:22.445Z,10.15
2017-11-20T09:56:49.516Z,10.27
2017-11-20T09:59:16.549Z,9.95
2017-11-20T10:01:42.884Z,10.70
2017-11-20T10:04:09.252Z,9.25
2017-11-20T10:06:39.786Z,10.30
2017-11-20T10:09:06.105Z,9.55
2017-11-20T10:11:32.469Z,10.60
2017-11-20T10:13:58.774Z,10.68
2017-11-20T10:16:25.102Z,9.88
2017-11-20T10:18:51.448Z,11.73
2017-11-20T10:21:17.748Z,10.77
2017-11-20T10:23:44.088Z,10.25
2017-11-20T10:26:11.169Z,10.15
2017-11-20T10:28:38.270Z,9.07
2017-11-20T10:31:04.593Z,10.18
2017-11-20T10:33:30.917Z,10.25
2017-11-20T10:35:57.268Z,9.35
2017-11-20T10:38:23.601Z,9.73
2017-11-20T10:40:49.949Z,10.48
2017-11-20T10:43:16.248Z,9.07
2017-11-20T10:45:42.584Z,9.20
2017-11-20T10:48:08.928Z,9.05
2017-11-20T10:50:35.236Z,8.13
2017-11-20T10:53:01.553Z,10.68
2017-11-20T10:55:27.896Z,7.82
2017-11-20T10:57:54.237Z,8.93
2017-11-20T11:00:21.293Z,8.25
2017-11-20T11:02:47.665Z,8.50
2017-11-20T11:05:13.985Z,8.48
2017-11-20T11:07:41.049Z,9.13
2017-11-20T11:10:07.409Z,9.57
2017-11-20T11:12:33.724Z,7.18
2017-11-20T11:15:00.800Z,8.18
2017-11-20T11:17:27.160Z,7.85
2017-11-20T11:19:53.509Z,7.35
2017-11-20T11:22:19.837Z,8.38
